createdAt,value
2022-11-05T00:00:38.243Z,9.51
2022-11-05T00:03:28.705Z,9.46
2022-11-05T00:06:14.913Z,9.42
2022-11-05T00:09:14.775Z,9.33
2022-11-05T00:12:01.024Z,9.28
2022-11-05T00:14:47.732Z,9.21
2022-11-05T00:17:15.409Z,9.18
2022-11-05T00:19:43.111Z,9.17
2022-11-05T00:22:29.469Z,9.17
2022-11-05T00:25:18.375Z,9.10
2022-11-05T00:27:52.171Z,9.05
2022-11-05T00:30:25.447Z,8.99
2022-11-05T00:32:53.105Z,9.01
2022-11-05T00:35:22.290Z,9.01
2022-11-05T00:37:50.702Z,9.00
2022-11-05T00:40:19.920Z,9.02
2022-11-05T00:43:06.325Z,8.97
2022-11-05T00:45:33.961Z,8.92
2022-11-05T00:48:20.126Z,8.98
2022-11-05T00:50:47.844Z,8.98
2022-11-05T00:53:15.586Z,8.96
2022-11-05T00:55:46.013Z,8.93
2022-11-05T00:58:17.383Z,8.91
2022-11-05T01:00:52.940Z,8.90
2022-11-05T01:03:24.191Z,8.89
2022-11-05T01:05:59.214Z,8.90
2022-11-05T01:08:28.220Z,8.91
2022-11-05T01:10:57.527Z,8.93
2022-11-05T01:13:30.280Z,8.94
2022-11-05T01:15:57.977Z,8.93
2022-11-05T01:18:25.609Z,8.95
2022-11-05T01:20:53.331Z,8.92
2022-11-05T01:23:21.493Z,8.95
2022-11-05T01:25:49.393Z,8.97
2022-11-05T01:28:17.078Z,8.98
2022-11-05T01:30:44.835Z,8.97
2022-11-05T01:33:12.906Z,8.99
2022-11-05T01:35:40.704Z,8.96
2022-11-05T01:38:08.749Z,8.97
2022-11-05T01:40:36.393Z,8.97
2022-11-05T01:43:14.410Z,8.96
2022-11-05T01:45:42.984Z,8.98
2022-11-05T01:48:18.738Z,8.99
2022-11-05T01:50:49.344Z,8.98
2022-11-05T01:53:48.190Z,8.97
2022-11-05T01:56:26.213Z,8.95
2022-11-05T01:59:06.752Z,8.92
2022-11-05T02:01:34.549Z,8.94
2022-11-05T02:04:07.237Z,8.95
2022-11-05T02:06:38.994Z,8.95
2022-11-05T02:09:11.419Z,8.93
2022-11-05T02:11:39.084Z,8.91
2022-11-05T02:14:08.885Z,8.88
2022-11-05T02:16:42.204Z,8.89
2022-11-05T02:19:28.325Z,8.90
2022-11-05T02:22:24.949Z,8.91
2022-11-05T02:25:11.001Z,8.91
2022-11-05T02:27:41.451Z,8.87
2022-11-05T02:30:37.073Z,8.82
2022-11-05T02:33:43.256Z,8.78
2022-11-05T02:36:17.107Z,8.78
2022-11-05T02:38:59.485Z,8.79
2022-11-05T02:42:17.961Z,8.81
2022-11-05T02:45:22.625Z,8.82
2022-11-05T02:47:55.665Z,8.79
2022-11-05T02:50:51.252Z,8.79
2022-11-05T02:53:38.042Z,8.74
2022-11-05T02:56:13.321Z,8.71
2022-11-05T02:58:41.639Z,8.71
2022-11-05T03:01:12.497Z,8.73
2022-11-05T03:04:01.020Z,8.75
2022-11-05T03:06:41.286Z,8.74
2022-11-05T03:09:20.934Z,8.73
2022-11-05T03:12:13.265Z,8.72
2022-11-05T03:15:03.339Z,8.75
2022-11-05T03:17:43.146Z,8.77
2022-11-05T03:20:26.272Z,8.75
2022-11-05T03:23:12.714Z,8.73
2022-11-05T03:25:47.293Z,8.72
2022-11-05T03:28:15.331Z,8.70
2022-11-05T03:30:44.984Z,8.67
2022-11-05T03:33:19.097Z,8.68
2022-11-05T03:35:51.760Z,8.67
2022-11-05T03:38:25.505Z,8.67
2022-11-05T03:40:57.149Z,8.66
2022-11-05T03:43:29.547Z,8.65
2022-11-05T03:46:02.522Z,8.65
2022-11-05T03:48:32.920Z,8.65
2022-11-05T03:51:25.465Z,8.69
2022-11-05T03:53:57.663Z,8.71
2022-11-05T03:56:38.250Z,8.73
2022-11-05T03:59:09.349Z,8.74
2022-11-05T04:01:38.846Z,8.75
2022-11-05T04:04:06.977Z,8.72
2022-11-05T04:06:53.639Z,8.66
2022-11-05T04:09:39.815Z,8.65
2022-11-05T04:12:28.659Z,8.65
2022-11-05T04:14:56.993Z,8.66
2022-11-05T04:17:24.760Z,8.63
2022-11-05T04:20:10.792Z,8.64
2022-11-05T04:22:57.263Z,8.62
2022-11-05T04:25:24.986Z,8.61
2022-11-05T04:27:53.467Z,8.58
2022-11-05T04:30:23.965Z,8.55
2022-11-05T04:33:05.641Z,8.55
2022-11-05T04:35:36.476Z,8.55
2022-11-05T04:38:05.851Z,8.57
2022-11-05T04:40:34.052Z,8.55
2022-11-05T04:43:02.150Z,8.55
2022-11-05T04:45:34.348Z,8.55
2022-11-05T04:48:03.931Z,8.53
2022-11-05T04:50:32.633Z,8.54
2022-11-05T04:53:01.016Z,8.54
2022-11-05T04:55:28.954Z,8.56
2022-11-05T04:57:56.651Z,8.60
2022-11-05T05:00:25.051Z,8.61
2022-11-05T05:02:52.731Z,8.57
2022-11-05T05:05:22.593Z,8.54
2022-11-05T05:07:50.292Z,8.48
2022-11-05T05:10:18.054Z,8.44
2022-11-05T05:12:45.691Z,8.44
2022-11-05T05:15:13.514Z,8.38
2022-11-05T05:17:41.224Z,8.33
2022-11-05T05:20:27.671Z,8.26
2022-11-05T05:22:56.055Z,8.23
2022-11-05T05:25:23.961Z,8.20
2022-11-05T05:27:51.837Z,8.22
2022-11-05T05:30:19.494Z,8.23
2022-11-05T05:32:47.236Z,8.19
2022-11-05T05:35:14.891Z,8.18
2022-11-05T05:37:43.157Z,8.17
2022-11-05T05:40:11.300Z,8.18
2022-11-05T05:42:42.942Z,8.19
2022-11-05T05:45:12.356Z,8.18
2022-11-05T05:47:40.140Z,8.20
2022-11-05T05:50:08.175Z,8.18
2022-11-05T05:52:35.850Z,8.16
2022-11-05T05:55:03.850Z,8.14
2022-11-05T05:57:31.560Z,8.13
2022-11-05T06:00:00.952Z,8.13
2022-11-05T06:02:31.020Z,8.13
2022-11-05T06:04:58.738Z,8.16
2022-11-05T06:07:26.925Z,8.17
2022-11-05T06:09:54.611Z,8.19
2022-11-05T06:12:22.321Z,8.19
2022-11-05T06:14:49.924Z,8.18
2022-11-05T06:17:17.603Z,8.21
2022-11-05T06:19:45.264Z,8.23
2022-11-05T06:22:12.945Z,8.25
2022-11-05T06:24:40.561Z,8.26
2022-11-05T06:27:08.237Z,8.27
2022-11-05T06:29:35.849Z,8.26
2022-11-05T06:32:03.668Z,8.25
2022-11-05T06:34:31.303Z,8.25
2022-11-05T06:36:59.686Z,8.26
2022-11-05T06:39:27.373Z,8.26
2022-11-05T06:42:17.120Z,8.32
2022-11-05T06:44:42.631Z,8.36
2022-11-05T06:47:11.258Z,8.39
2022-11-05T06:49:38.941Z,8.39
2022-11-05T06:52:06.654Z,8.36
2022-11-05T06:54:34.289Z,8.33
2022-11-05T06:57:02.025Z,8.32
2022-11-05T06:59:29.973Z,8.34
2022-11-05T07:01:57.768Z,8.41
2022-11-05T07:04:25.463Z,8.46
2022-11-05T07:06:53.109Z,8.48
2022-11-05T07:09:20.734Z,8.51
2022-11-05T07:11:48.372Z,8.53
2022-11-05T07:14:16.067Z,8.52
2022-11-05T07:16:44.020Z,8.55
2022-11-05T07:19:11.810Z,8.58
2022-11-05T07:21:39.594Z,8.64
2022-11-05T07:24:07.804Z,8.68
2022-11-05T07:26:35.548Z,8.66
2022-11-05T07:29:03.846Z,8.66
2022-11-05T07:31:31.615Z,8.66
2022-11-05T07:33:59.439Z,8.67
2022-11-05T07:36:27.052Z,8.68
2022-11-05T07:38:59.938Z,8.68
2022-11-05T07:41:29.390Z,8.70
2022-11-05T07:43:57.568Z,8.76
2022-11-05T07:46:25.280Z,8.77
2022-11-05T07:48:52.996Z,8.78
2022-11-05T07:51:20.658Z,8.76
2022-11-05T07:53:48.593Z,8.74
2022-11-05T07:56:16.557Z,8.76
2022-11-05T07:58:44.502Z,8.77
2022-11-05T08:01:12.305Z,8.79
2022-11-05T08:03:40.269Z,8.84
2022-11-05T08:06:08.183Z,8.92
2022-11-05T08:08:35.933Z,8.93
2022-11-05T08:11:08.334Z,8.88
2022-11-05T08:13:36.749Z,8.86
2022-11-05T08:16:05.857Z,8.86
2022-11-05T08:18:34.649Z,8.89
2022-11-05T08:21:04.738Z,8.92
2022-11-05T08:23:32.835Z,8.95
2022-11-05T08:26:02.940Z,8.97
2022-11-05T08:28:31.150Z,8.99
2022-11-05T08:30:58.913Z,8.98
2022-11-05T08:33:27.541Z,8.98
2022-11-05T08:35:55.248Z,9.02
2022-11-05T08:38:23.685Z,9.06
2022-11-05T08:40:57.419Z,9.06
2022-11-05T08:43:26.487Z,9.06
2022-11-05T08:45:55.051Z,9.12
2022-11-05T08:48:22.865Z,9.11
2022-11-05T08:50:50.646Z,9.14
2022-11-05T08:53:18.763Z,9.19
2022-11-05T08:55:47.745Z,9.21
2022-11-05T08:58:17.024Z,9.26
2022-11-05T09:00:47.561Z,9.28
2022-11-05T09:03:18.626Z,9.28
2022-11-05T09:05:47.263Z,9.27
2022-11-05T09:08:18.239Z,9.28
2022-11-05T09:10:47.872Z,9.30
2022-11-05T09:13:19.461Z,9.34
2022-11-05T09:15:49.270Z,9.39
2022-11-05T09:18:18.870Z,9.42
2022-11-05T09:20:47.810Z,9.43
2022-11-05T09:23:16.157Z,9.42
2022-11-05T09:25:45.329Z,9.42
2022-11-05T09:28:18.948Z,9.44
2022-11-05T09:30:48.914Z,9.50
2022-11-05T09:33:18.957Z,9.53
2022-11-05T09:35:47.159Z,9.57
2022-11-05T09:38:15.094Z,9.61
2022-11-05T09:40:57.954Z,9.59
2022-11-05T09:43:38.317Z,9.61
2022-11-05T09:46:17.357Z,9.58
2022-11-05T09:48:49.790Z,9.53
2022-11-05T09:51:23.728Z,9.58
2022-11-05T09:53:53.619Z,9.64
2022-11-05T09:56:21.309Z,9.73
2022-11-05T09:58:54.876Z,9.76
2022-11-05T10:01:28.187Z,9.78
2022-11-05T10:03:59.685Z,9.74
2022-11-05T10:06:28.431Z,9.73
2022-11-05T10:09:07.974Z,9.71
2022-11-05T10:11:41.969Z,9.73
2022-11-05T10:14:22.787Z,9.76
2022-11-05T10:16:57.991Z,9.81
2022-11-05T10:19:48.159Z,9.85
2022-11-05T10:22:18.200Z,9.87
2022-11-05T10:24:50.735Z,9.86
2022-11-05T10:27:24.197Z,9.85
2022-11-05T10:29:52.921Z,9.84
2022-11-05T10:32:28.381Z,9.85
2022-11-05T10:34:59.714Z,9.88
2022-11-05T10:37:28.679Z,9.96
2022-11-05T10:39:56.513Z,10.03
2022-11-05T10:42:30.186Z,10.04
2022-11-05T10:45:06.891Z,10.05
2022-11-05T10:47:58.807Z,10.08
2022-11-05T10:50:29.575Z,10.16
2022-11-05T10:53:01.050Z,10.18
2022-11-05T10:55:32.696Z,10.15
2022-11-05T10:58:31.238Z,10.12
2022-11-05T11:00:59.118Z,10.11
2022-11-05T11:03:47.093Z,10.06
2022-11-05T11:06:24.522Z,10.01
2022-11-05T11:08:55.761Z,10.01
2022-11-05T11:11:29.109Z,10.02
2022-11-05T11:13:56.784Z,10.03
2022-11-05T11:16:26.821Z,10.06
2022-11-05T11:18:58.453Z,10.09
2022-11-05T11:21:28.261Z,10.04
2022-11-05T11:24:03.766Z,10.05
2022-11-05T11:26:40.191Z,10.10
2022-11-05T11:29:17.960Z,10.14
2022-11-05T11:31:45.994Z,10.20
2022-11-05T11:34:27.655Z,10.22
2022-11-05T11:37:19.195Z,10.25
2022-11-05T11:39:52.413Z,10.26
2022-11-05T11:42:32.225Z,10.30
2022-11-05T11:45:05.848Z,10.37
2022-11-05T11:47:33.759Z,10.39
2022-11-05T11:50:02.679Z,10.42
2022-11-05T11:52:33.565Z,10.45
2022-11-05T11:55:21.098Z,10.42
2022-11-05T11:58:07.055Z,10.35
2022-11-05T12:00:41.803Z,10.40
2022-11-05T12:03:41.490Z,10.45
2022-11-05T12:06:47.449Z,10.47
2022-11-05T12:09:25.862Z,10.47
2022-11-05T12:12:13.294Z,10.47
2022-11-05T12:14:53.021Z,10.48
2022-11-05T12:17:50.569Z,10.45
2022-11-05T12:20:38.597Z,10.48
2022-11-05T12:23:53.832Z,10.54
2022-11-05T12:26:57.250Z,10.51
2022-11-05T12:29:46.008Z,10.58
2022-11-05T12:32:38.873Z,10.65
2022-11-05T12:35:44.123Z,10.68
2022-11-05T12:38:58.900Z,10.73
2022-11-05T12:41:40.562Z,10.67
2022-11-05T12:44:20.094Z,10.62
2022-11-05T12:47:09.377Z,10.56
2022-11-05T12:49:46.374Z,10.54
2022-11-05T12:52:49.037Z,10.54
2022-11-05T12:55:20.540Z,10.51
2022-11-05T12:57:52.309Z,10.46
2022-11-05T13:00:26.081Z,10.45
2022-11-05T13:03:22.157Z,10.43
2022-11-05T13:06:05.506Z,10.40
2022-11-05T13:08:37.758Z,10.41
2022-11-05T13:11:17.529Z,10.45
2022-11-05T13:14:10.201Z,10.51
2022-11-05T13:16:43.408Z,10.57
2022-11-05T13:19:19.080Z,10.63
2022-11-05T13:21:50.782Z,10.65
2022-11-05T13:24:31.089Z,10.67
2022-11-05T13:27:11.046Z,10.66
2022-11-05T13:29:47.463Z,10.64
2022-11-05T13:32:31.245Z,10.68
2022-11-05T13:35:02.549Z,10.73
2022-11-05T13:38:00.134Z,10.74
2022-11-05T13:40:45.272Z,10.66
2022-11-05T13:43:52.288Z,10.58
2022-11-05T13:46:32.041Z,10.53
2022-11-05T13:49:21.594Z,10.52
2022-11-05T13:51:56.117Z,10.56
2022-11-05T13:54:42.880Z,10.64
2022-11-05T13:57:35.140Z,10.67
2022-11-05T14:00:20.139Z,10.63
2022-11-05T14:03:04.478Z,10.62
2022-11-05T14:05:36.019Z,10.60
2022-11-05T14:08:20.032Z,10.63
2022-11-05T14:11:28.230Z,10.68
2022-11-05T14:14:01.211Z,10.77
2022-11-05T14:16:47.537Z,10.80
2022-11-05T14:19:18.240Z,10.82
2022-11-05T14:21:59.110Z,10.90
2022-11-05T14:24:28.313Z,10.90
2022-11-05T14:27:02.040Z,10.83
2022-11-05T14:29:46.343Z,10.76
2022-11-05T14:32:17.049Z,10.79
2022-11-05T14:34:44.699Z,10.81
2022-11-05T14:37:12.549Z,10.80
2022-11-05T14:39:41.247Z,10.90
2022-11-05T14:42:22.290Z,10.97
2022-11-05T14:45:10.248Z,10.97
2022-11-05T14:47:41.069Z,10.91
2022-11-05T14:50:26.752Z,10.90
2022-11-05T14:52:57.433Z,10.97
2022-11-05T14:55:29.564Z,11.03
2022-11-05T14:57:57.156Z,11.03
2022-11-05T15:00:40.702Z,11.00
2022-11-05T15:03:33.394Z,10.97
2022-11-05T15:06:22.451Z,10.99
2022-11-05T15:08:50.053Z,11.01
2022-11-05T15:11:20.587Z,10.96
2022-11-05T15:13:54.250Z,10.90
2022-11-05T15:16:25.114Z,10.96
2022-11-05T15:18:55.422Z,11.06
2022-11-05T15:21:24.944Z,11.05
2022-11-05T15:23:58.961Z,11.03
2022-11-05T15:27:09.464Z,10.97
2022-11-05T15:29:37.763Z,10.81
2022-11-05T15:32:05.651Z,10.73
2022-11-05T15:34:35.756Z,10.73
2022-11-05T15:37:23.499Z,10.77
2022-11-05T15:39:55.831Z,10.75
2022-11-05T15:42:27.125Z,10.74
2022-11-05T15:45:00.031Z,10.71
2022-11-05T15:47:34.446Z,10.66
2022-11-05T15:50:14.061Z,10.61
2022-11-05T15:52:51.764Z,10.52
2022-11-05T15:55:24.142Z,10.51
2022-11-05T15:58:06.382Z,10.50
2022-11-05T16:00:36.649Z,10.48
2022-11-05T16:03:18.972Z,10.47
2022-11-05T16:05:48.656Z,10.38
2022-11-05T16:08:21.811Z,10.33
2022-11-05T16:10:53.318Z,10.31
2022-11-05T16:13:41.479Z,10.32
2022-11-05T16:16:15.405Z,10.32
2022-11-05T16:18:45.290Z,10.31
2022-11-05T16:21:18.939Z,10.32
2022-11-05T16:23:55.758Z,10.35
2022-11-05T16:29:39.230Z,10.28
2022-11-05T16:32:17.215Z,10.22
2022-11-05T16:34:53.796Z,10.17
2022-11-05T16:37:25.012Z,10.14
2022-11-05T16:39:53.867Z,10.13
2022-11-05T16:42:24.787Z,10.12
2022-11-05T16:44:55.101Z,10.14
2022-11-05T16:47:23.425Z,10.08
2022-11-05T16:49:51.577Z,10.07
2022-11-05T16:52:19.807Z,10.02
2022-11-05T16:54:47.932Z,9.99
2022-11-05T16:57:27.287Z,10.00
2022-11-05T16:59:56.976Z,9.99
2022-11-05T17:02:25.785Z,10.01
2022-11-05T17:04:53.912Z,10.03
2022-11-05T17:07:21.689Z,10.08
2022-11-05T17:09:50.580Z,10.05
2022-11-05T17:12:18.393Z,9.98
2022-11-05T17:14:46.197Z,9.93
2022-11-05T17:17:14.937Z,9.91
2022-11-05T17:19:42.923Z,9.93
2022-11-05T17:22:13.858Z,9.89
2022-11-05T17:24:41.680Z,9.91
2022-11-05T17:27:09.634Z,9.89
2022-11-05T17:29:37.786Z,9.88
2022-11-05T17:32:06.022Z,9.90
2022-11-05T17:34:34.143Z,9.91
2022-11-05T17:37:02.122Z,9.91
2022-11-05T17:39:31.786Z,9.94
2022-11-05T17:42:00.030Z,9.93
2022-11-05T17:44:29.969Z,9.91
2022-11-05T17:46:57.706Z,9.85
2022-11-05T17:49:25.510Z,9.86
2022-11-05T17:51:53.749Z,9.85
2022-11-05T17:54:21.803Z,9.81
2022-11-05T17:56:54.875Z,9.82
2022-11-05T17:59:22.713Z,9.75
2022-11-05T18:01:51.687Z,9.72
2022-11-05T18:04:19.572Z,9.68
2022-11-05T18:06:47.662Z,9.69
2022-11-05T18:09:15.548Z,9.67
2022-11-05T18:11:43.949Z,9.65
2022-11-05T18:14:11.936Z,9.66
2022-11-05T18:16:39.886Z,9.57
2022-11-05T18:19:07.589Z,9.58
2022-11-05T18:21:35.313Z,9.60
2022-11-05T18:24:04.399Z,9.56
2022-11-05T18:26:33.117Z,9.58
2022-11-05T18:29:04.466Z,9.52
2022-11-05T18:31:32.459Z,9.50
2022-11-05T18:34:00.587Z,9.43
2022-11-05T18:36:30.881Z,9.42
2022-11-05T18:39:01.370Z,9.40
2022-11-05T18:41:29.506Z,9.36
2022-11-05T18:44:02.085Z,9.34
2022-11-05T18:46:56.452Z,9.35
2022-11-05T18:49:18.941Z,9.36
2022-11-05T18:51:46.601Z,9.36
2022-11-05T18:54:14.503Z,9.36
2022-11-05T18:56:45.613Z,9.35
2022-11-05T18:59:35.870Z,9.31
2022-11-05T19:02:05.800Z,9.30
2022-11-05T19:04:35.730Z,9.30
2022-11-05T19:07:05.415Z,9.28
2022-11-05T19:09:38.376Z,9.28
2022-11-05T19:12:07.858Z,9.29
2022-11-05T19:14:35.652Z,9.28
2022-11-05T19:17:03.463Z,9.30
2022-11-05T19:19:31.223Z,9.32
2022-11-05T19:21:59.040Z,9.36
2022-11-05T19:24:26.753Z,9.39
2022-11-05T19:26:54.515Z,9.37
2022-11-05T19:29:22.294Z,9.33
2022-11-05T19:31:50.053Z,9.29
2022-11-05T19:34:17.807Z,9.32
2022-11-05T19:36:45.474Z,9.34
2022-11-05T19:39:14.657Z,9.36
2022-11-05T19:41:42.638Z,9.37
2022-11-05T19:44:10.514Z,9.32
2022-11-05T19:46:38.465Z,9.32
2022-11-05T19:49:06.126Z,9.31
2022-11-05T19:51:33.961Z,9.32
2022-11-05T19:54:03.243Z,9.35
2022-11-05T19:56:33.703Z,9.34
2022-11-05T19:59:03.381Z,9.36
2022-11-05T20:01:31.447Z,9.36
2022-11-05T20:04:00.224Z,9.39
2022-11-05T20:06:32.265Z,9.40
2022-11-05T20:11:54.977Z,9.42
2022-11-05T20:14:24.748Z,9.43
2022-11-05T20:16:53.702Z,9.42
2022-11-05T20:19:22.984Z,9.42
2022-11-05T20:21:50.707Z,9.44
2022-11-05T20:24:24.850Z,9.42
2022-11-05T20:26:54.910Z,9.44
2022-11-05T20:29:23.653Z,9.42
2022-11-05T20:31:53.436Z,9.41
2022-11-05T20:34:21.113Z,9.43
2022-11-05T20:36:48.742Z,9.44
2022-11-05T20:39:18.279Z,9.43
2022-11-05T20:41:45.840Z,9.43
2022-11-05T20:44:13.850Z,9.43
2022-11-05T20:46:41.601Z,9.42
2022-11-05T20:49:09.345Z,9.42
2022-11-05T20:51:37.114Z,9.42
2022-11-05T20:54:05.347Z,9.46
2022-11-05T20:56:37.045Z,9.46
2022-11-05T20:59:05.501Z,9.45
2022-11-05T21:01:34.631Z,9.46
2022-11-05T21:04:03.293Z,9.48
2022-11-05T21:06:31.612Z,9.52
2022-11-05T21:08:59.437Z,9.51
2022-11-05T21:11:27.414Z,9.48
2022-11-05T21:13:55.082Z,9.49
2022-11-05T21:16:22.795Z,9.47
2022-11-05T21:18:50.566Z,9.45
2022-11-05T21:21:20.443Z,9.46
2022-11-05T21:23:48.396Z,9.47
2022-11-05T21:26:18.035Z,9.52
2022-11-05T21:28:45.871Z,9.50
2022-11-05T21:31:13.743Z,9.48
2022-11-05T21:33:41.570Z,9.49
2022-11-05T21:36:12.382Z,9.46
2022-11-05T21:38:41.353Z,9.44
2022-11-05T21:41:11.493Z,9.43
2022-11-05T21:43:41.752Z,9.46
2022-11-05T21:46:12.115Z,9.45
2022-11-05T21:48:39.849Z,9.47
2022-11-05T21:51:26.217Z,9.50
2022-11-05T21:54:12.675Z,9.50
2022-11-05T21:56:59.141Z,9.50
2022-11-05T21:59:45.586Z,9.55
2022-11-05T22:02:22.476Z,9.46
2022-11-05T22:04:54.837Z,9.41
2022-11-05T22:07:25.364Z,9.39
2022-11-05T22:09:53.505Z,9.40
2022-11-05T22:12:21.593Z,9.41
2022-11-05T22:14:49.354Z,9.41
2022-11-05T22:17:18.303Z,9.37
2022-11-05T22:19:45.988Z,9.39
2022-11-05T22:22:14.173Z,9.39
2022-11-05T22:24:42.584Z,9.37
2022-11-05T22:27:16.251Z,9.39
2022-11-05T22:29:44.162Z,9.35
2022-11-05T22:32:12.122Z,9.33
2022-11-05T22:34:40.057Z,9.37
2022-11-05T22:37:07.863Z,9.38
2022-11-05T22:39:35.562Z,9.37
2022-11-05T22:42:08.269Z,9.31
2022-11-05T22:44:36.767Z,9.27
2022-11-05T22:47:05.520Z,9.29
2022-11-05T22:49:33.979Z,9.30
2022-11-05T22:52:02.259Z,9.29
2022-11-05T22:54:32.714Z,9.28
2022-11-05T22:57:03.191Z,9.29
2022-11-05T22:59:30.873Z,9.27
2022-11-05T23:01:58.665Z,9.22
2022-11-05T23:04:26.904Z,9.20
2022-11-05T23:07:13.045Z,9.22
2022-11-05T23:09:59.127Z,9.19
2022-11-05T23:12:33.111Z,9.20
2022-11-05T23:15:03.499Z,9.18
2022-11-05T23:17:50.314Z,9.17
2022-11-05T23:20:40.178Z,9.13
2022-11-05T23:23:30.848Z,9.06
2022-11-05T23:25:59.892Z,9.04
2022-11-05T23:28:27.527Z,9.02
2022-11-05T23:31:33.496Z,9.00
2022-11-05T23:34:01.112Z,8.96
2022-11-05T23:37:07.257Z,8.94
2022-11-05T23:39:41.184Z,8.89
2022-11-05T23:42:29.368Z,8.86
2022-11-05T23:45:15.718Z,8.88
2022-11-05T23:48:02.121Z,8.81
2022-11-05T23:50:35.431Z,8.79
2022-11-05T23:53:06.664Z,8.77
2022-11-05T23:55:34.641Z,8.75
2022-11-05T23:58:02.454Z,8.74
